sensor_id;sensor_type;location;lat;lon;timestamp;P1;durP1;ratioP1;P2;durP2;ratioP2
23714;SDS011;12036;50.858;4.472;2023-04-03T00:00:13;15.75;;;10.45;;
23714;SDS011;12036;50.858;4.472;2023-04-03T00:02:39;15.32;;;9.75;;
23714;SDS011;12036;50.858;4.472;2023-04-03T00:05:05;13.63;;;9.90;;
23714;SDS011;12036;50.858;4.472;2023-04-03T00:07:32;14.07;;;9.32;;
23714;SDS011;12036;50.858;4.472;2023-04-03T00:09:58;17.25;;;9.98;;
23714;SDS011;12036;50.858;4.472;2023-04-03T00:12:23;14.38;;;10.07;;
23714;SDS011;12036;50.858;4.472;2023-04-03T00:14:49;14.65;;;9.80;;
23714;SDS011;12036;50.858;4.472;2023-04-03T00:17:14;14.30;;;10.10;;
23714;SDS011;12036;50.858;4.472;2023-04-03T00:19:40;14.23;;;9.98;;
23714;SDS011;12036;50.858;4.472;2023-04-03T00:22:06;15.52;;;10.18;;
23714;SDS011;12036;50.858;4.472;2023-04-03T00:24:31;16.70;;;10.07;;
23714;SDS011;12036;50.858;4.472;2023-04-03T00:26:57;14.93;;;9.15;;
23714;SDS011;12036;50.858;4.472;2023-04-03T00:29:22;16.55;;;10.20;;
23714;SDS011;12036;50.858;4.472;2023-04-03T00:31:48;18.27;;;10.63;;
23714;SDS011;12036;50.858;4.472;2023-04-03T00:34:14;15.50;;;9.57;;
23714;SDS011;12036;50.858;4.472;2023-04-03T00:36:40;14.60;;;10.00;;
23714;SDS011;12036;50.858;4.472;2023-04-03T00:39:05;13.55;;;9.38;;
23714;SDS011;12036;50.858;4.472;2023-04-03T00:41:31;12.88;;;9.18;;
23714;SDS011;12036;50.858;4.472;2023-04-03T00:43:57;12.98;;;9.57;;
23714;SDS011;12036;50.858;4.472;2023-04-03T00:46:22;14.38;;;9.27;;
23714;SDS011;12036;50.858;4.472;2023-04-03T00:48:48;14.38;;;9.15;;
23714;SDS011;12036;50.858;4.472;2023-04-03T00:51:16;16.13;;;9.63;;
23714;SDS011;12036;50.858;4.472;2023-04-03T00:56:18;14.05;;;9.57;;
23714;SDS011;12036;50.858;4.472;2023-04-03T00:58:48;13.27;;;9.15;;
23714;SDS011;12036;50.858;4.472;2023-04-03T01:01:34;12.63;;;8.48;;
23714;SDS011;12036;50.858;4.472;2023-04-03T01:04:01;15.10;;;9.23;;
23714;SDS011;12036;50.858;4.472;2023-04-03T01:06:28;12.40;;;9.23;;
23714;SDS011;12036;50.858;4.472;2023-04-03T01:08:57;12.93;;;8.65;;
23714;SDS011;12036;50.858;4.472;2023-04-03T01:11:24;13.88;;;9.07;;
23714;SDS011;12036;50.858;4.472;2023-04-03T01:13:50;13.07;;;9.18;;
23714;SDS011;12036;50.858;4.472;2023-04-03T01:16:15;12.05;;;8.27;;
23714;SDS011;12036;50.858;4.472;2023-04-03T01:18:41;16.00;;;10.32;;
23714;SDS011;12036;50.858;4.472;2023-04-03T01:27:05;14.82;;;9.27;;
23714;SDS011;12036;50.858;4.472;2023-04-03T01:29:31;14.02;;;8.60;;
23714;SDS011;12036;50.858;4.472;2023-04-03T01:31:58;12.20;;;8.90;;
23714;SDS011;12036;50.858;4.472;2023-04-03T01:34:25;16.20;;;9.65;;
23714;SDS011;12036;50.858;4.472;2023-04-03T01:36:52;13.05;;;9.05;;
23714;SDS011;12036;50.858;4.472;2023-04-03T01:39:18;14.75;;;9.07;;
23714;SDS011;12036;50.858;4.472;2023-04-03T01:41:45;12.30;;;8.48;;
23714;SDS011;12036;50.858;4.472;2023-04-03T01:44:10;13.10;;;9.07;;
23714;SDS011;12036;50.858;4.472;2023-04-03T01:46:36;13.38;;;8.55;;
23714;SDS011;12036;50.858;4.472;2023-04-03T01:49:03;14.10;;;9.32;;
23714;SDS011;12036;50.858;4.472;2023-04-03T01:51:29;11.85;;;7.82;;
23714;SDS011;12036;50.858;4.472;2023-04-03T01:53:55;13.43;;;9.05;;
23714;SDS011;12036;50.858;4.472;2023-04-03T01:56:20;12.98;;;8.50;;
23714;SDS011;12036;50.858;4.472;2023-04-03T01:58:46;13.48;;;8.77;;
23714;SDS011;12036;50.858;4.472;2023-04-03T02:01:12;14.25;;;8.30;;
23714;SDS011;12036;50.858;4.472;2023-04-03T02:03:37;14.45;;;8.73;;
23714;SDS011;12036;50.858;4.472;2023-04-03T02:06:03;13.10;;;8.70;;
23714;SDS011;12036;50.858;4.472;2023-04-03T02:08:29;14.23;;;8.75;;
23714;SDS011;12036;50.858;4.472;2023-04-03T02:10:55;15.77;;;8.88;;
23714;SDS011;12036;50.858;4.472;2023-04-03T02:13:20;12.52;;;8.63;;
23714;SDS011;12036;50.858;4.472;2023-04-03T02:15:46;21.25;;;8.70;;
23714;SDS011;12036;50.858;4.472;2023-04-03T02:18:14;15.50;;;8.52;;
23714;SDS011;12036;50.858;4.472;2023-04-03T02:20:41;11.70;;;8.32;;
23714;SDS011;12036;50.858;4.472;2023-04-03T02:23:06;18.98;;;9.13;;
23714;SDS011;12036;50.858;4.472;2023-04-03T02:25:32;14.93;;;9.18;;
23714;SDS011;12036;50.858;4.472;2023-04-03T02:27:58;10.65;;;8.07;;
23714;SDS011;12036;50.858;4.472;2023-04-03T02:30:24;15.18;;;9.25;;
23714;SDS011;12036;50.858;4.472;2023-04-03T02:32:51;13.63;;;9.02;;
23714;SDS011;12036;50.858;4.472;2023-04-03T02:35:16;11.18;;;8.93;;
23714;SDS011;12036;50.858;4.472;2023-04-03T02:37:45;16.20;;;9.27;;
23714;SDS011;12036;50.858;4.472;2023-04-03T02:40:10;13.48;;;8.68;;
23714;SDS011;12036;50.858;4.472;2023-04-03T02:42:36;15.73;;;8.68;;
23714;SDS011;12036;50.858;4.472;2023-04-03T02:45:02;14.68;;;8.70;;
23714;SDS011;12036;50.858;4.472;2023-04-03T02:47:28;14.02;;;9.07;;
23714;SDS011;12036;50.858;4.472;2023-04-03T02:49:54;14.18;;;8.73;;
23714;SDS011;12036;50.858;4.472;2023-04-03T02:52:20;14.43;;;9.32;;
23714;SDS011;12036;50.858;4.472;2023-04-03T02:54:46;18.52;;;9.30;;
23714;SDS011;12036;50.858;4.472;2023-04-03T02:57:12;17.42;;;9.07;;
23714;SDS011;12036;50.858;4.472;2023-04-03T02:59:38;14.85;;;8.23;;
23714;SDS011;12036;50.858;4.472;2023-04-03T03:02:09;12.25;;;9.05;;
23714;SDS011;12036;50.858;4.472;2023-04-03T03:04:35;15.10;;;8.43;;
23714;SDS011;12036;50.858;4.472;2023-04-03T03:07:01;14.65;;;8.63;;
23714;SDS011;12036;50.858;4.472;2023-04-03T03:09:27;11.63;;;8.93;;
23714;SDS011;12036;50.858;4.472;2023-04-03T03:11:54;16.95;;;9.75;;
23714;SDS011;12036;50.858;4.472;2023-04-03T03:14:20;17.20;;;9.00;;
23714;SDS011;12036;50.858;4.472;2023-04-03T03:16:47;14.52;;;8.65;;
23714;SDS011;12036;50.858;4.472;2023-04-03T03:19:12;11.38;;;8.07;;
23714;SDS011;12036;50.858;4.472;2023-04-03T03:21:38;18.40;;;9.07;;
23714;SDS011;12036;50.858;4.472;2023-04-03T03:24:04;15.95;;;8.20;;
23714;SDS011;12036;50.858;4.472;2023-04-03T03:26:30;14.43;;;9.18;;
23714;SDS011;12036;50.858;4.472;2023-04-03T03:28:55;18.02;;;8.80;;
23714;SDS011;12036;50.858;4.472;2023-04-03T03:31:21;10.70;;;8.13;;
23714;SDS011;12036;50.858;4.472;2023-04-03T03:33:47;11.90;;;8.07;;
23714;SDS011;12036;50.858;4.472;2023-04-03T03:36:12;16.35;;;9.60;;
23714;SDS011;12036;50.858;4.472;2023-04-03T03:38:38;16.17;;;9.15;;
23714;SDS011;12036;50.858;4.472;2023-04-03T03:41:04;14.18;;;8.40;;
23714;SDS011;12036;50.858;4.472;2023-04-03T03:43:29;11.23;;;7.90;;
23714;SDS011;12036;50.858;4.472;2023-04-03T03:45:55;15.70;;;9.05;;
23714;SDS011;12036;50.858;4.472;2023-04-03T03:48:21;15.82;;;9.10;;
23714;SDS011;12036;50.858;4.472;2023-04-03T03:50:48;13.90;;;8.70;;
23714;SDS011;12036;50.858;4.472;2023-04-03T03:53:14;16.77;;;8.65;;
23714;SDS011;12036;50.858;4.472;2023-04-03T03:55:40;11.75;;;8.50;;
23714;SDS011;12036;50.858;4.472;2023-04-03T03:58:06;15.13;;;8.90;;
23714;SDS011;12036;50.858;4.472;2023-04-03T04:00:32;11.82;;;8.35;;
23714;SDS011;12036;50.858;4.472;2023-04-03T04:02:58;12.55;;;8.10;;
23714;SDS011;12036;50.858;4.472;2023-04-03T04:05:23;13.57;;;9.30;;
23714;SDS011;12036;50.858;4.472;2023-04-03T04:07:49;16.92;;;8.82;;
23714;SDS011;12036;50.858;4.472;2023-04-03T04:10:15;13.35;;;8.55;;
23714;SDS011;12036;50.858;4.472;2023-04-03T04:12:41;18.48;;;8.98;;
23714;SDS011;12036;50.858;4.472;2023-04-03T04:15:07;13.85;;;8.15;;
23714;SDS011;12036;50.858;4.472;2023-04-03T04:17:33;9.98;;;7.90;;
23714;SDS011;12036;50.858;4.472;2023-04-03T04:20:00;13.70;;;8.85;;
23714;SDS011;12036;50.858;4.472;2023-04-03T04:22:26;12.95;;;8.57;;
23714;SDS011;12036;50.858;4.472;2023-04-03T04:24:51;12.52;;;9.23;;
23714;SDS011;12036;50.858;4.472;2023-04-03T04:27:17;14.98;;;9.18;;
23714;SDS011;12036;50.858;4.472;2023-04-03T04:29:43;14.90;;;9.30;;
23714;SDS011;12036;50.858;4.472;2023-04-03T04:32:08;19.75;;;9.77;;
23714;SDS011;12036;50.858;4.472;2023-04-03T04:34:34;16.30;;;10.38;;
23714;SDS011;12036;50.858;4.472;2023-04-03T04:37:00;14.93;;;9.32;;
23714;SDS011;12036;50.858;4.472;2023-04-03T04:39:25;14.40;;;9.95;;
23714;SDS011;12036;50.858;4.472;2023-04-03T04:41:51;15.60;;;9.68;;
23714;SDS011;12036;50.858;4.472;2023-04-03T04:44:17;14.32;;;10.18;;
23714;SDS011;12036;50.858;4.472;2023-04-03T04:46:42;15.32;;;9.35;;
23714;SDS011;12036;50.858;4.472;2023-04-03T04:49:08;18.17;;;10.73;;
23714;SDS011;12036;50.858;4.472;2023-04-03T04:51:34;15.73;;;11.15;;
23714;SDS011;12036;50.858;4.472;2023-04-03T04:53:59;17.48;;;10.93;;
23714;SDS011;12036;50.858;4.472;2023-04-03T04:56:25;16.70;;;10.73;;
23714;SDS011;12036;50.858;4.472;2023-04-03T04:58:51;18.90;;;11.20;;
23714;SDS011;12036;50.858;4.472;2023-04-03T05:01:16;16.48;;;11.13;;
23714;SDS011;12036;50.858;4.472;2023-04-03T05:03:43;18.38;;;10.18;;
23714;SDS011;12036;50.858;4.472;2023-04-03T05:06:09;20.15;;;11.60;;
23714;SDS011;12036;50.858;4.472;2023-04-03T05:08:35;16.58;;;10.82;;
23714;SDS011;12036;50.858;4.472;2023-04-03T05:11:00;18.17;;;11.27;;
23714;SDS011;12036;50.858;4.472;2023-04-03T05:13:26;18.55;;;11.35;;
23714;SDS011;12036;50.858;4.472;2023-04-03T05:15:52;19.15;;;11.57;;
23714;SDS011;12036;50.858;4.472;2023-04-03T05:18:17;17.02;;;11.85;;
23714;SDS011;12036;50.858;4.472;2023-04-03T05:20:43;26.48;;;12.55;;
23714;SDS011;12036;50.858;4.472;2023-04-03T05:23:09;17.70;;;11.93;;
23714;SDS011;12036;50.858;4.472;2023-04-03T05:25:37;20.48;;;11.20;;
23714;SDS011;12036;50.858;4.472;2023-04-03T05:28:03;20.15;;;12.88;;
23714;SDS011;12036;50.858;4.472;2023-04-03T05:30:29;22.08;;;13.15;;
23714;SDS011;12036;50.858;4.472;2023-04-03T05:32:54;21.60;;;12.93;;
23714;SDS011;12036;50.858;4.472;2023-04-03T05:35:20;21.85;;;12.88;;
23714;SDS011;12036;50.858;4.472;2023-04-03T05:37:46;20.95;;;12.48;;
23714;SDS011;12036;50.858;4.472;2023-04-03T05:40:11;17.52;;;13.02;;
23714;SDS011;12036;50.858;4.472;2023-04-03T05:42:37;25.83;;;13.68;;
23714;SDS011;12036;50.858;4.472;2023-04-03T05:45:03;22.13;;;12.52;;
23714;SDS011;12036;50.858;4.472;2023-04-03T05:47:29;25.48;;;14.05;;
23714;SDS011;12036;50.858;4.472;2023-04-03T05:49:55;18.42;;;12.25;;
23714;SDS011;12036;50.858;4.472;2023-04-03T05:52:28;19.35;;;13.02;;
23714;SDS011;12036;50.858;4.472;2023-04-03T05:54:56;28.30;;;14.02;;
23714;SDS011;12036;50.858;4.472;2023-04-03T05:57:22;19.83;;;14.15;;
23714;SDS011;12036;50.858;4.472;2023-04-03T05:59:48;22.48;;;13.75;;
23714;SDS011;12036;50.858;4.472;2023-04-03T06:02:15;20.48;;;12.95;;
23714;SDS011;12036;50.858;4.472;2023-04-03T06:04:42;20.33;;;13.27;;
23714;SDS011;12036;50.858;4.472;2023-04-03T06:07:12;19.55;;;13.40;;
23714;SDS011;12036;50.858;4.472;2023-04-03T06:09:40;22.60;;;14.00;;
23714;SDS011;12036;50.858;4.472;2023-04-03T06:12:07;19.85;;;13.32;;
23714;SDS011;12036;50.858;4.472;2023-04-03T06:14:33;24.05;;;13.93;;
23714;SDS011;12036;50.858;4.472;2023-04-03T06:16:58;19.17;;;13.60;;
23714;SDS011;12036;50.858;4.472;2023-04-03T06:19:25;18.13;;;13.88;;
23714;SDS011;12036;50.858;4.472;2023-04-03T06:21:51;26.13;;;13.52;;
23714;SDS011;12036;50.858;4.472;2023-04-03T06:24:17;24.85;;;14.07;;
23714;SDS011;12036;50.858;4.472;2023-04-03T06:26:43;27.08;;;14.13;;
23714;SDS011;12036;50.858;4.472;2023-04-03T06:29:09;21.98;;;13.65;;
23714;SDS011;12036;50.858;4.472;2023-04-03T06:31:35;22.13;;;14.07;;
23714;SDS011;12036;50.858;4.472;2023-04-03T06:34:04;18.30;;;13.77;;
23714;SDS011;12036;50.858;4.472;2023-04-03T06:36:31;20.77;;;13.02;;
23714;SDS011;12036;50.858;4.472;2023-04-03T06:38:57;18.70;;;13.60;;
23714;SDS011;12036;50.858;4.472;2023-04-03T06:41:23;19.60;;;12.95;;
23714;SDS011;12036;50.858;4.472;2023-04-03T06:43:48;22.13;;;12.75;;
23714;SDS011;12036;50.858;4.472;2023-04-03T06:46:18;20.23;;;13.40;;
23714;SDS011;12036;50.858;4.472;2023-04-03T06:48:46;22.17;;;13.88;;
23714;SDS011;12036;50.858;4.472;2023-04-03T06:51:18;20.98;;;12.60;;
23714;SDS011;12036;50.858;4.472;2023-04-03T06:53:45;29.02;;;13.25;;
23714;SDS011;12036;50.858;4.472;2023-04-03T06:56:11;24.20;;;13.75;;
23714;SDS011;12036;50.858;4.472;2023-04-03T06:58:37;20.65;;;13.73;;
23714;SDS011;12036;50.858;4.472;2023-04-03T07:01:02;19.83;;;12.98;;
23714;SDS011;12036;50.858;4.472;2023-04-03T07:03:28;19.75;;;12.82;;
23714;SDS011;12036;50.858;4.472;2023-04-03T07:05:53;18.13;;;13.60;;
23714;SDS011;12036;50.858;4.472;2023-04-03T07:08:20;18.75;;;12.95;;
23714;SDS011;12036;50.858;4.472;2023-04-03T07:10:46;14.52;;;11.63;;
23714;SDS011;12036;50.858;4.472;2023-04-03T07:13:11;12.52;;;9.65;;
23714;SDS011;12036;50.858;4.472;2023-04-03T07:15:37;14.15;;;7.90;;
23714;SDS011;12036;50.858;4.472;2023-04-03T07:18:03;9.18;;;7.88;;
23714;SDS011;12036;50.858;4.472;2023-04-03T07:20:29;13.73;;;8.20;;
23714;SDS011;12036;50.858;4.472;2023-04-03T07:22:55;13.40;;;7.53;;
23714;SDS011;12036;50.858;4.472;2023-04-03T07:25:20;10.85;;;7.75;;
23714;SDS011;12036;50.858;4.472;2023-04-03T07:27:46;9.93;;;7.32;;
23714;SDS011;12036;50.858;4.472;2023-04-03T07:30:12;14.07;;;7.35;;
23714;SDS011;12036;50.858;4.472;2023-04-03T07:32:39;14.43;;;6.78;;
23714;SDS011;12036;50.858;4.472;2023-04-03T07:35:05;9.32;;;6.28;;
23714;SDS011;12036;50.858;4.472;2023-04-03T07:37:31;8.07;;;5.65;;
23714;SDS011;12036;50.858;4.472;2023-04-03T07:39:57;8.20;;;5.28;;
23714;SDS011;12036;50.858;4.472;2023-04-03T07:42:24;9.45;;;5.70;;
23714;SDS011;12036;50.858;4.472;2023-04-03T07:44:52;8.48;;;5.60;;
23714;SDS011;12036;50.858;4.472;2023-04-03T07:47:18;5.10;;;4.57;;
23714;SDS011;12036;50.858;4.472;2023-04-03T07:49:45;7.13;;;4.72;;
23714;SDS011;12036;50.858;4.472;2023-04-03T07:52:11;8.02;;;5.10;;
23714;SDS011;12036;50.858;4.472;2023-04-03T07:54:36;8.27;;;4.93;;
23714;SDS011;12036;50.858;4.472;2023-04-03T07:57:02;10.52;;;6.18;;
23714;SDS011;12036;50.858;4.472;2023-04-03T07:59:28;6.35;;;4.65;;
23714;SDS011;12036;50.858;4.472;2023-04-03T08:01:54;8.52;;;4.90;;
23714;SDS011;12036;50.858;4.472;2023-04-03T08:04:20;6.97;;;5.07;;
23714;SDS011;12036;50.858;4.472;2023-04-03T08:06:46;9.13;;;5.43;;
23714;SDS011;12036;50.858;4.472;2023-04-03T08:09:12;7.55;;;4.82;;
23714;SDS011;12036;50.858;4.472;2023-04-03T08:11:39;10.05;;;5.43;;
23714;SDS011;12036;50.858;4.472;2023-04-03T08:14:05;6.25;;;4.55;;
23714;SDS011;12036;50.858;4.472;2023-04-03T08:16:31;6.25;;;4.80;;
23714;SDS011;12036;50.858;4.472;2023-04-03T08:18:57;8.13;;;5.53;;
23714;SDS011;12036;50.858;4.472;2023-04-03T08:21:22;8.82;;;4.70;;
23714;SDS011;12036;50.858;4.472;2023-04-03T08:23:48;6.05;;;5.05;;
23714;SDS011;12036;50.858;4.472;2023-04-03T08:26:19;6.25;;;5.13;;
23714;SDS011;12036;50.858;4.472;2023-04-03T08:28:46;7.95;;;5.22;;
23714;SDS011;12036;50.858;4.472;2023-04-03T08:31:15;5.45;;;4.80;;
23714;SDS011;12036;50.858;4.472;2023-04-03T08:33:43;10.15;;;5.05;;
23714;SDS011;12036;50.858;4.472;2023-04-03T08:36:17;13.00;;;5.53;;
23714;SDS011;12036;50.858;4.472;2023-04-03T08:38:43;6.07;;;4.95;;
23714;SDS011;12036;50.858;4.472;2023-04-03T08:41:20;6.70;;;4.57;;
23714;SDS011;12036;50.858;4.472;2023-04-03T08:49:10;7.82;;;5.03;;
23714;SDS011;12036;50.858;4.472;2023-04-03T08:52:04;7.20;;;4.35;;
23714;SDS011;12036;50.858;4.472;2023-04-03T08:54:35;7.63;;;4.30;;
23714;SDS011;12036;50.858;4.472;2023-04-03T08:57:09;9.85;;;4.40;;
23714;SDS011;12036;50.858;4.472;2023-04-03T08:59:37;7.00;;;4.00;;
23714;SDS011;12036;50.858;4.472;2023-04-03T09:02:11;6.82;;;3.83;;
23714;SDS011;12036;50.858;4.472;2023-04-03T09:04:47;8.77;;;4.85;;
23714;SDS011;12036;50.858;4.472;2023-04-03T09:07:22;11.18;;;3.80;;
23714;SDS011;12036;50.858;4.472;2023-04-03T09:10:04;7.88;;;3.92;;
23714;SDS011;12036;50.858;4.472;2023-04-03T09:12:38;5.50;;;3.38;;
23714;SDS011;12036;50.858;4.472;2023-04-03T09:15:23;8.57;;;3.42;;
23714;SDS011;12036;50.858;4.472;2023-04-03T09:17:59;8.13;;;3.20;;
23714;SDS011;12036;50.858;4.472;2023-04-03T09:25:53;7.07;;;2.75;;
23714;SDS011;12036;50.858;4.472;2023-04-03T09:28:28;3.50;;;2.10;;
23714;SDS011;12036;50.858;4.472;2023-04-03T09:30:55;4.03;;;2.08;;
23714;SDS011;12036;50.858;4.472;2023-04-03T09:33:21;7.65;;;2.58;;
23714;SDS011;12036;50.858;4.472;2023-04-03T09:35:47;3.33;;;2.15;;
23714;SDS011;12036;50.858;4.472;2023-04-03T09:38:19;4.15;;;2.13;;
23714;SDS011;12036;50.858;4.472;2023-04-03T09:41:04;4.00;;;1.98;;
23714;SDS011;12036;50.858;4.472;2023-04-03T09:43:32;3.47;;;2.20;;
23714;SDS011;12036;50.858;4.472;2023-04-03T09:46:15;4.78;;;1.90;;
23714;SDS011;12036;50.858;4.472;2023-04-03T09:48:50;4.35;;;1.85;;
23714;SDS011;12036;50.858;4.472;2023-04-03T09:51:17;4.68;;;2.95;;
23714;SDS011;12036;50.858;4.472;2023-04-03T09:53:44;3.63;;;2.05;;
23714;SDS011;12036;50.858;4.472;2023-04-03T09:58:45;5.30;;;1.77;;
23714;SDS011;12036;50.858;4.472;2023-04-03T10:01:26;5.53;;;1.83;;
23714;SDS011;12036;50.858;4.472;2023-04-03T10:06:41;2.97;;;1.77;;
23714;SDS011;12036;50.858;4.472;2023-04-03T10:09:22;3.67;;;1.70;;
23714;SDS011;12036;50.858;4.472;2023-04-03T10:14:38;4.20;;;1.90;;
23714;SDS011;12036;50.858;4.472;2023-04-03T10:25:10;2.67;;;1.60;;
23714;SDS011;12036;50.858;4.472;2023-04-03T10:28:01;3.70;;;1.70;;
23714;SDS011;12036;50.858;4.472;2023-04-03T10:42:15;4.55;;;1.83;;
23714;SDS011;12036;50.858;4.472;2023-04-03T10:45:19;4.50;;;1.63;;
23714;SDS011;12036;50.858;4.472;2023-04-03T10:58:44;3.42;;;1.20;;
23714;SDS011;12036;50.858;4.472;2023-04-03T11:01:16;3.70;;;1.20;;
23714;SDS011;12036;50.858;4.472;2023-04-03T11:03:52;3.03;;;1.40;;
23714;SDS011;12036;50.858;4.472;2023-04-03T11:06:21;3.92;;;1.30;;
23714;SDS011;12036;50.858;4.472;2023-04-03T11:16:29;4.18;;;1.20;;
23714;SDS011;12036;50.858;4.472;2023-04-03T11:19:04;4.88;;;1.45;;
23714;SDS011;12036;50.858;4.472;2023-04-03T11:24:36;3.40;;;1.60;;
23714;SDS011;12036;50.858;4.472;2023-04-03T11:27:05;4.20;;;1.40;;
23714;SDS011;12036;50.858;4.472;2023-04-03T11:29:32;3.08;;;1.13;;
23714;SDS011;12036;50.858;4.472;2023-04-03T11:34:56;3.17;;;1.33;;
23714;SDS011;12036;50.858;4.472;2023-04-03T11:37:31;5.47;;;1.25;;
23714;SDS011;12036;50.858;4.472;2023-04-03T11:40:17;4.75;;;1.65;;
23714;SDS011;12036;50.858;4.472;2023-04-03T11:42:55;2.92;;;1.17;;
23714;SDS011;12036;50.858;4.472;2023-04-03T11:50:56;3.72;;;1.38;;
23714;SDS011;12036;50.858;4.472;2023-04-03T11:53:38;2.78;;;1.48;;
23714;SDS011;12036;50.858;4.472;2023-04-03T11:56:26;4.20;;;1.45;;
23714;SDS011;12036;50.858;4.472;2023-04-03T12:01:43;4.05;;;1.30;;
23714;SDS011;12036;50.858;4.472;2023-04-03T12:04:20;3.35;;;1.58;;
23714;SDS011;12036;50.858;4.472;2023-04-03T12:06:50;2.25;;;1.17;;
23714;SDS011;12036;50.858;4.472;2023-04-03T12:12:49;3.65;;;1.10;;
23714;SDS011;12036;50.858;4.472;2023-04-03T12:17:42;1.65;;;1.00;;
23714;SDS011;12036;50.858;4.472;2023-04-03T12:25:50;3.42;;;1.40;;
23714;SDS011;12036;50.858;4.472;2023-04-03T12:28:16;4.03;;;1.30;;
23714;SDS011;12036;50.858;4.472;2023-04-03T12:30:42;3.17;;;1.40;;
23714;SDS011;12036;50.858;4.472;2023-04-03T12:35:57;2.05;;;1.05;;
23714;SDS011;12036;50.858;4.472;2023-04-03T12:46:37;3.67;;;1.15;;
23714;SDS011;12036;50.858;4.472;2023-04-03T12:51:51;1.75;;;1.05;;
23714;SDS011;12036;50.858;4.472;2023-04-03T12:57:10;2.13;;;1.08;;
23714;SDS011;12036;50.858;4.472;2023-04-03T12:59:37;4.28;;;1.40;;
23714;SDS011;12036;50.858;4.472;2023-04-03T13:02:10;2.58;;;1.20;;
23714;SDS011;12036;50.858;4.472;2023-04-03T13:04:50;7.15;;;1.08;;
23714;SDS011;12036;50.858;4.472;2023-04-03T13:07:24;4.88;;;1.25;;
23714;SDS011;12036;50.858;4.472;2023-04-03T13:10:03;2.55;;;1.05;;
23714;SDS011;12036;50.858;4.472;2023-04-03T13:12:35;2.47;;;0.98;;
23714;SDS011;12036;50.858;4.472;2023-04-03T13:15:22;1.80;;;1.10;;
23714;SDS011;12036;50.858;4.472;2023-04-03T13:17:50;3.78;;;1.40;;
23714;SDS011;12036;50.858;4.472;2023-04-03T13:25:26;2.65;;;1.20;;
23714;SDS011;12036;50.858;4.472;2023-04-03T13:27:55;2.80;;;1.08;;
23714;SDS011;12036;50.858;4.472;2023-04-03T13:32:55;9.93;;;1.20;;
23714;SDS011;12036;50.858;4.472;2023-04-03T13:35:26;1.98;;;1.00;;
23714;SDS011;12036;50.858;4.472;2023-04-03T13:37:56;2.00;;;1.20;;
23714;SDS011;12036;50.858;4.472;2023-04-03T13:40:24;3.33;;;1.10;;
23714;SDS011;12036;50.858;4.472;2023-04-03T13:43:14;2.72;;;1.17;;
23714;SDS011;12036;50.858;4.472;2023-04-03T13:48:34;5.93;;;1.38;;
23714;SDS011;12036;50.858;4.472;2023-04-03T13:53:53;2.17;;;1.20;;
23714;SDS011;12036;50.858;4.472;2023-04-03T14:01:39;3.07;;;1.13;;
23714;SDS011;12036;50.858;4.472;2023-04-03T14:04:20;3.90;;;1.00;;
23714;SDS011;12036;50.858;4.472;2023-04-03T14:06:52;3.53;;;1.05;;
23714;SDS011;12036;50.858;4.472;2023-04-03T14:09:19;5.57;;;1.38;;
23714;SDS011;12036;50.858;4.472;2023-04-03T14:11:46;3.88;;;1.35;;
23714;SDS011;12036;50.858;4.472;2023-04-03T14:14:18;2.92;;;1.10;;
23714;SDS011;12036;50.858;4.472;2023-04-03T14:16:50;2.20;;;1.25;;
23714;SDS011;12036;50.858;4.472;2023-04-03T14:19:23;3.80;;;1.33;;
23714;SDS011;12036;50.858;4.472;2023-04-03T14:21:53;3.55;;;1.25;;
23714;SDS011;12036;50.858;4.472;2023-04-03T14:24:20;4.10;;;1.45;;
23714;SDS011;12036;50.858;4.472;2023-04-03T14:26:46;5.03;;;1.45;;
23714;SDS011;12036;50.858;4.472;2023-04-03T14:29:13;4.15;;;1.35;;
23714;SDS011;12036;50.858;4.472;2023-04-03T14:31:41;3.17;;;1.10;;
23714;SDS011;12036;50.858;4.472;2023-04-03T14:34:09;2.17;;;1.00;;
23714;SDS011;12036;50.858;4.472;2023-04-03T14:36:36;4.32;;;1.20;;
23714;SDS011;12036;50.858;4.472;2023-04-03T14:39:03;2.72;;;1.08;;
23714;SDS011;12036;50.858;4.472;2023-04-03T14:41:30;1.80;;;1.13;;
23714;SDS011;12036;50.858;4.472;2023-04-03T14:43:56;2.47;;;1.40;;
23714;SDS011;12036;50.858;4.472;2023-04-03T14:46:32;2.05;;;1.10;;
23714;SDS011;12036;50.858;4.472;2023-04-03T14:49:01;2.50;;;1.20;;
23714;SDS011;12036;50.858;4.472;2023-04-03T14:51:27;3.20;;;1.08;;
23714;SDS011;12036;50.858;4.472;2023-04-03T14:53:53;2.78;;;1.00;;
23714;SDS011;12036;50.858;4.472;2023-04-03T14:56:28;3.17;;;0.90;;
23714;SDS011;12036;50.858;4.472;2023-04-03T14:58:59;2.47;;;1.05;;
23714;SDS011;12036;50.858;4.472;2023-04-03T15:01:25;4.28;;;1.33;;
23714;SDS011;12036;50.858;4.472;2023-04-03T15:03:52;4.35;;;1.17;;
23714;SDS011;12036;50.858;4.472;2023-04-03T15:06:18;1.80;;;0.85;;
23714;SDS011;12036;50.858;4.472;2023-04-03T15:08:45;5.97;;;0.90;;
23714;SDS011;12036;50.858;4.472;2023-04-03T15:11:12;3.67;;;1.25;;
23714;SDS011;12036;50.858;4.472;2023-04-03T15:13:38;3.10;;;1.10;;
23714;SDS011;12036;50.858;4.472;2023-04-03T15:16:05;2.78;;;1.15;;
23714;SDS011;12036;50.858;4.472;2023-04-03T15:18:37;5.30;;;1.10;;
23714;SDS011;12036;50.858;4.472;2023-04-03T15:21:03;1.65;;;1.08;;
23714;SDS011;12036;50.858;4.472;2023-04-03T15:23:29;2.10;;;0.98;;
23714;SDS011;12036;50.858;4.472;2023-04-03T15:25:55;2.95;;;1.30;;
23714;SDS011;12036;50.858;4.472;2023-04-03T15:30:55;4.22;;;1.33;;
23714;SDS011;12036;50.858;4.472;2023-04-03T15:33:21;2.78;;;1.20;;
23714;SDS011;12036;50.858;4.472;2023-04-03T15:35:47;2.45;;;1.08;;
23714;SDS011;12036;50.858;4.472;2023-04-03T15:38:13;5.57;;;1.20;;
23714;SDS011;12036;50.858;4.472;2023-04-03T15:40:39;4.18;;;1.30;;
23714;SDS011;12036;50.858;4.472;2023-04-03T15:43:05;3.60;;;1.15;;
23714;SDS011;12036;50.858;4.472;2023-04-03T15:45:32;2.30;;;1.17;;
23714;SDS011;12036;50.858;4.472;2023-04-03T15:48:00;4.50;;;1.33;;
23714;SDS011;12036;50.858;4.472;2023-04-03T15:50:27;3.28;;;1.40;;
23714;SDS011;12036;50.858;4.472;2023-04-03T15:52:53;2.92;;;1.60;;
23714;SDS011;12036;50.858;4.472;2023-04-03T15:55:23;2.97;;;1.50;;
23714;SDS011;12036;50.858;4.472;2023-04-03T15:57:50;2.75;;;1.15;;
23714;SDS011;12036;50.858;4.472;2023-04-03T16:00:17;2.97;;;1.60;;
23714;SDS011;12036;50.858;4.472;2023-04-03T16:02:43;3.65;;;1.23;;
23714;SDS011;12036;50.858;4.472;2023-04-03T16:05:11;2.28;;;1.40;;
23714;SDS011;12036;50.858;4.472;2023-04-03T16:07:38;3.65;;;1.23;;
23714;SDS011;12036;50.858;4.472;2023-04-03T16:10:05;5.25;;;1.35;;
23714;SDS011;12036;50.858;4.472;2023-04-03T16:12:33;5.13;;;1.33;;
23714;SDS011;12036;50.858;4.472;2023-04-03T16:14:59;2.35;;;1.52;;
23714;SDS011;12036;50.858;4.472;2023-04-03T16:17:25;8.32;;;1.40;;
23714;SDS011;12036;50.858;4.472;2023-04-03T16:19:52;3.55;;;1.33;;
23714;SDS011;12036;50.858;4.472;2023-04-03T16:22:19;3.67;;;1.67;;
23714;SDS011;12036;50.858;4.472;2023-04-03T16:24:46;4.13;;;1.52;;
23714;SDS011;12036;50.858;4.472;2023-04-03T16:27:11;3.03;;;1.48;;
23714;SDS011;12036;50.858;4.472;2023-04-03T16:29:37;5.05;;;1.52;;
23714;SDS011;12036;50.858;4.472;2023-04-03T16:32:03;2.17;;;1.40;;
23714;SDS011;12036;50.858;4.472;2023-04-03T16:34:28;4.18;;;1.50;;
23714;SDS011;12036;50.858;4.472;2023-04-03T16:36:57;3.55;;;1.40;;
23714;SDS011;12036;50.858;4.472;2023-04-03T16:39:22;3.65;;;1.73;;
23714;SDS011;12036;50.858;4.472;2023-04-03T16:41:48;3.40;;;1.48;;
23714;SDS011;12036;50.858;4.472;2023-04-03T16:44:14;2.03;;;1.30;;
23714;SDS011;12036;50.858;4.472;2023-04-03T16:46:39;4.95;;;1.40;;
23714;SDS011;12036;50.858;4.472;2023-04-03T16:49:05;2.95;;;1.45;;
23714;SDS011;12036;50.858;4.472;2023-04-03T16:51:30;2.58;;;1.60;;